createdAt,value
2019-02-12T00:01:46.807Z,97138.00
2019-02-12T00:06:49.452Z,97165.00
2019-02-12T00:11:52.065Z,97145.00
2019-02-12T00:16:54.617Z,97142.00
2019-02-12T00:21:57.175Z,97152.00
2019-02-12T00:27:00.244Z,97171.00
2019-02-12T00:32:02.804Z,97179.00
2019-02-12T00:37:05.288Z,97208.00
2019-02-12T00:42:07.987Z,97208.00
2019-02-12T00:47:10.592Z,97208.00
2019-02-12T00:52:13.848Z,97214.00
2019-02-12T00:57:16.393Z,97208.00
2019-02-12T01:02:18.964Z,97221.00
2019-02-12T01:07:21.499Z,97233.00
2019-02-12T01:12:24.918Z,97242.00
2019-02-12T01:17:27.770Z,97255.00
2019-02-12T01:22:30.308Z,97248.00
2019-02-12T01:27:34.148Z,97252.00
2019-02-12T01:32:36.751Z,97273.00
2019-02-12T01:37:39.375Z,97276.00
2019-02-12T01:42:42.276Z,97269.00
2019-02-12T01:47:45.151Z,97268.00
2019-02-12T01:52:48.932Z,97261.00
2019-02-12T01:57:51.428Z,97274.00
2019-02-12T02:02:54.006Z,97270.00
2019-02-12T02:07:56.521Z,97274.00
2019-02-12T02:13:00.626Z,97273.00
2019-02-12T02:18:03.137Z,97271.00
2019-02-12T02:23:05.951Z,97262.00
2019-02-12T02:28:08.788Z,97253.00
2019-02-12T02:33:11.310Z,97255.00
2019-02-12T02:38:13.849Z,97295.00
2019-02-12T02:43:16.573Z,97269.00
2019-02-12T02:48:19.115Z,97277.00
2019-02-12T02:53:21.889Z,97288.00
2019-02-12T02:58:24.573Z,97296.00
2019-02-12T03:03:27.167Z,97302.00
2019-02-12T03:08:30.635Z,97302.00
2019-02-12T03:13:33.144Z,97305.00
2019-02-12T03:18:35.803Z,97303.00
2019-02-12T03:23:39.450Z,97303.00
2019-02-12T03:28:41.986Z,97322.00
2019-02-12T03:33:45.252Z,97328.00
2019-02-12T03:38:47.948Z,97352.00
2019-02-12T03:43:50.815Z,97343.00
2019-02-12T03:48:53.485Z,97340.00
2019-02-12T03:53:56.058Z,97351.00
2019-02-12T03:58:58.959Z,97359.00
2019-02-12T04:04:01.328Z,97360.00
2019-02-12T04:09:04.751Z,97356.00
2019-02-12T04:14:07.282Z,97349.00
2019-02-12T04:19:09.950Z,97354.00
2019-02-12T04:24:12.639Z,97365.00
2019-02-12T04:29:16.179Z,97357.00
2019-02-12T04:34:18.768Z,97354.00
2019-02-12T04:39:21.272Z,97354.00
2019-02-12T04:44:24.185Z,97360.00
2019-02-12T04:49:26.739Z,97145.00
2019-02-12T04:54:29.296Z,97361.00
2019-02-12T04:59:32.182Z,97359.00
2019-02-12T05:04:34.788Z,97371.00
2019-02-12T05:09:40.955Z,97377.00
2019-02-12T05:15:06.609Z,97368.00
2019-02-12T05:20:12.263Z,97380.00
2019-02-12T05:25:15.988Z,97394.00
2019-02-12T05:30:18.566Z,97388.00
2019-02-12T05:35:21.208Z,97390.00
2019-02-12T05:40:23.855Z,97402.00
2019-02-12T05:45:26.355Z,97399.00
2019-02-12T05:50:29.090Z,97403.00
2019-02-12T05:55:31.956Z,97404.00
2019-02-12T06:00:34.470Z,97405.00
2019-02-12T06:05:37.171Z,97415.00
2019-02-12T06:10:39.732Z,97422.00
2019-02-12T06:15:42.728Z,97419.00
2019-02-12T06:20:46.546Z,97419.00
2019-02-12T06:25:49.175Z,97411.00
2019-02-12T06:30:51.684Z,97425.00
2019-02-12T06:35:54.147Z,97439.00
2019-02-12T06:40:56.643Z,97428.00
2019-02-12T06:45:59.092Z,97446.00
2019-02-12T06:51:01.711Z,97449.00
2019-02-12T06:56:04.679Z,97468.00
2019-02-12T07:01:07.207Z,97482.00
2019-02-12T07:06:47.492Z,97485.00
2019-02-12T07:12:19.161Z,97490.00
2019-02-12T07:18:18.770Z,97483.00
2019-02-12T07:24:14.023Z,97518.00
2019-02-12T07:30:07.796Z,97527.00
2019-02-12T07:35:39.371Z,97532.00
2019-02-12T07:41:19.860Z,97549.00
2019-02-12T07:46:54.124Z,97538.00
2019-02-12T07:52:53.778Z,97543.00
2019-02-12T07:58:32.161Z,97557.00
2019-02-12T08:04:18.563Z,97559.00
2019-02-12T08:10:05.638Z,97570.00
2019-02-12T08:15:45.855Z,97587.00
2019-02-12T08:21:10.474Z,97601.00
2019-02-12T08:26:51.999Z,97600.00
2019-02-12T08:32:31.711Z,97593.00
2019-02-12T08:38:10.745Z,97584.00
2019-02-12T08:43:39.179Z,97579.00
2019-02-12T08:49:38.417Z,97590.00
2019-02-12T08:55:25.673Z,97582.00
2019-02-12T09:00:47.449Z,97598.00
2019-02-12T09:06:18.450Z,97609.00
2019-02-12T09:11:34.675Z,97600.00
2019-02-12T09:17:05.087Z,97594.00
2019-02-12T09:22:44.364Z,97602.00
2019-02-12T09:28:18.058Z,97605.00
2019-02-12T09:33:50.471Z,97616.00
2019-02-12T09:39:33.930Z,97612.00
2019-02-12T09:45:13.365Z,97622.00
2019-02-12T09:50:36.735Z,97613.00
2019-02-12T09:56:03.014Z,97620.00
2019-02-12T10:01:43.349Z,97631.00
2019-02-12T10:07:14.353Z,97642.00
2019-02-12T10:12:57.493Z,97641.00
2019-02-12T10:18:28.511Z,97653.00
2019-02-12T10:23:49.708Z,97661.00
2019-02-12T10:29:19.891Z,97661.00
2019-02-12T10:34:25.495Z,97659.00
2019-02-12T10:39:28.166Z,97670.00
2019-02-12T10:44:31.022Z,97680.00
2019-02-12T10:49:33.547Z,97684.00
2019-02-12T10:54:36.056Z,97683.00
2019-02-12T10:59:38.603Z,97683.00
2019-02-12T11:04:41.318Z,97680.00
2019-02-12T11:09:44.123Z,97669.00
2019-02-12T11:14:47.638Z,97672.00
2019-02-12T11:19:50.517Z,97667.00
2019-02-12T11:24:55.776Z,97665.00
2019-02-12T11:30:00.059Z,97655.00
2019-02-12T11:35:06.534Z,97663.00
2019-02-12T11:40:09.114Z,97663.00
2019-02-12T11:45:15.334Z,97667.00
2019-02-12T11:56:47.959Z,97684.00
2019-02-12T12:01:54.260Z,97686.00
2019-02-12T12:06:57.415Z,97691.00
2019-02-12T12:12:01.533Z,97693.00
2019-02-12T12:17:04.205Z,97696.00
2019-02-12T12:22:06.603Z,97695.00
2019-02-12T12:27:09.204Z,97702.00
2019-02-12T12:32:12.484Z,97694.00
2019-02-12T12:37:15.095Z,97706.00
2019-02-12T12:42:17.571Z,97708.00
2019-02-12T12:47:20.167Z,97714.00
2019-02-12T12:52:23.554Z,97709.00
2019-02-12T12:57:32.568Z,97721.00
2019-02-12T13:02:38.091Z,97725.00
2019-02-12T13:07:40.802Z,97726.00
2019-02-12T13:24:37.373Z,97749.00
2019-02-12T13:30:00.381Z,97742.00
2019-02-12T13:35:09.680Z,97759.00
2019-02-12T13:40:12.764Z,97757.00
2019-02-12T13:45:15.539Z,97752.00
2019-02-12T13:50:18.111Z,97761.00
2019-02-12T13:55:20.592Z,97755.00
2019-02-12T14:00:24.479Z,97760.00
2019-02-12T14:05:27.129Z,97774.00
2019-02-12T14:10:30.459Z,97779.00
2019-02-12T14:15:39.035Z,97779.00
2019-02-12T14:20:47.818Z,97775.00
2019-02-12T14:25:50.239Z,97768.00
2019-02-12T14:30:54.947Z,97772.00
2019-02-12T14:35:57.779Z,97778.00
2019-02-12T14:41:00.370Z,97775.00
2019-02-12T14:46:02.916Z,97769.00
2019-02-12T14:51:05.434Z,97774.00
2019-02-12T14:56:11.426Z,97789.00
2019-02-12T15:01:12.264Z,97776.00
2019-02-12T15:06:14.766Z,97782.00
2019-02-12T15:11:17.391Z,97783.00
2019-02-12T15:16:20.019Z,97766.00
2019-02-12T15:21:23.371Z,97774.00
2019-02-12T15:26:25.898Z,97778.00
2019-02-12T15:31:28.427Z,97786.00
2019-02-12T15:36:31.503Z,97891.00
2019-02-12T15:41:34.654Z,97799.00
2019-02-12T15:46:38.639Z,97799.00
2019-02-12T15:51:41.375Z,97811.00
2019-02-12T15:56:47.904Z,97815.00
2019-02-12T16:02:02.003Z,97813.00
2019-02-12T16:07:04.583Z,97805.00
2019-02-12T16:12:07.705Z,97816.00
2019-02-12T16:17:10.407Z,97820.00
2019-02-12T16:22:13.255Z,97826.00
2019-02-12T16:27:16.131Z,97835.00
2019-02-12T16:32:22.060Z,97840.00
2019-02-12T16:37:29.445Z,97844.00
2019-02-12T16:42:35.419Z,97861.00
2019-02-12T16:47:37.907Z,97870.00
2019-02-12T16:52:40.510Z,97884.00
2019-02-12T16:57:43.324Z,97887.00
2019-02-12T17:02:47.143Z,97893.00
2019-02-12T17:07:51.211Z,97895.00
2019-02-12T17:12:54.193Z,97903.00
2019-02-12T17:17:57.986Z,97947.00
2019-02-12T17:23:00.791Z,97917.00
2019-02-12T17:28:03.337Z,97920.00
2019-02-12T17:33:05.903Z,97937.00
2019-02-12T17:38:08.564Z,97945.00
2019-02-12T17:43:13.450Z,97943.00
2019-02-12T17:48:16.119Z,97956.00
2019-02-12T17:53:28.038Z,97959.00
2019-02-12T17:58:42.944Z,97962.00
2019-02-12T18:04:00.695Z,97966.00
2019-02-12T18:09:07.359Z,97968.00
2019-02-12T18:14:17.648Z,97975.00
2019-02-12T18:19:38.491Z,97985.00
2019-02-12T18:29:58.248Z,97981.00
2019-02-12T18:40:26.587Z,97992.00
2019-02-12T18:45:43.135Z,97988.00
2019-02-12T18:50:54.437Z,97984.00
2019-02-12T18:55:56.942Z,97978.00
2019-02-12T19:00:59.802Z,97989.00
2019-02-12T19:06:05.364Z,98006.00
2019-02-12T19:11:08.287Z,97999.00
2019-02-12T19:16:36.055Z,98007.00
2019-02-12T19:21:38.678Z,98014.00
2019-02-12T19:26:41.293Z,98012.00
2019-02-12T19:31:44.412Z,98014.00
2019-02-12T19:43:28.843Z,98032.00
2019-02-12T19:55:07.198Z,98039.00
2019-02-12T20:00:16.507Z,98037.00
2019-02-12T20:05:24.607Z,98032.00
2019-02-12T20:16:15.392Z,98036.00
2019-02-12T20:21:22.522Z,98038.00
2019-02-12T20:26:25.975Z,98043.00
2019-02-12T20:31:29.175Z,98053.00
2019-02-12T20:36:33.401Z,98041.00
2019-02-12T20:41:36.148Z,98057.00
2019-02-12T20:46:38.798Z,98054.00
2019-02-12T20:51:42.283Z,98048.00
2019-02-12T20:56:44.935Z,98065.00
2019-02-12T21:01:47.527Z,98058.00
2019-02-12T21:06:50.417Z,98063.00
2019-02-12T21:11:53.087Z,98047.00
2019-02-12T21:16:56.468Z,98060.00
2019-02-12T21:21:59.107Z,98056.00
2019-02-12T21:27:02.955Z,98059.00
2019-02-12T21:32:05.647Z,98046.00
2019-02-12T21:37:08.549Z,98055.00
2019-02-12T21:42:11.196Z,98052.00
2019-02-12T21:47:13.816Z,98047.00
2019-02-12T21:52:17.895Z,98046.00
2019-02-12T21:57:21.507Z,98059.00
2019-02-12T22:02:24.063Z,98060.00
2019-02-12T22:07:26.951Z,98053.00
2019-02-12T22:12:29.515Z,98054.00
2019-02-12T22:17:32.179Z,98056.00
2019-02-12T22:22:34.703Z,98049.00
2019-02-12T22:27:40.483Z,98043.00
2019-02-12T22:32:41.830Z,98043.00
2019-02-12T22:37:44.340Z,98043.00
2019-02-12T22:42:47.259Z,98038.00
2019-02-12T22:47:49.819Z,98047.00
2019-02-12T22:52:52.335Z,98050.00
2019-02-12T22:57:54.856Z,98049.00
2019-02-12T23:02:57.331Z,98046.00
2019-02-12T23:08:00.507Z,98045.00
2019-02-12T23:13:02.958Z,98054.00
2019-02-12T23:18:05.734Z,98065.00
2019-02-12T23:23:08.507Z,98059.00
2019-02-12T23:28:11.035Z,98054.00
2019-02-12T23:33:13.579Z,98052.00
2019-02-12T23:38:16.074Z,98052.00
2019-02-12T23:43:18.627Z,98047.00
2019-02-12T23:48:21.083Z,98057.00
2019-02-12T23:53:23.675Z,98058.00
2019-02-12T23:58:27.467Z,98057.00
